sensor_id;sensor_type;location;lat;lon;timestamp;P1;durP1;ratioP1;P2;durP2;ratioP2
20336;SDS011;10326;53.660;10.200;2023-04-24T00:01:16;5.03;;;4.53;;
20336;SDS011;10326;53.660;10.200;2023-04-24T00:03:46;4.47;;;4.07;;
20336;SDS011;10326;53.660;10.200;2023-04-24T00:06:13;4.70;;;4.30;;
20336;SDS011;10326;53.660;10.200;2023-04-24T00:08:42;4.28;;;3.88;;
20336;SDS011;10326;53.660;10.200;2023-04-24T00:11:09;4.55;;;4.22;;
20336;SDS011;10326;53.660;10.200;2023-04-24T00:13:36;4.80;;;4.18;;
20336;SDS011;10326;53.660;10.200;2023-04-24T00:16:04;5.10;;;4.70;;
20336;SDS011;10326;53.660;10.200;2023-04-24T00:18:31;4.97;;;4.57;;
20336;SDS011;10326;53.660;10.200;2023-04-24T00:20:59;4.22;;;3.90;;
20336;SDS011;10326;53.660;10.200;2023-04-24T00:23:28;4.28;;;3.97;;
20336;SDS011;10326;53.660;10.200;2023-04-24T00:25:54;4.22;;;3.92;;
20336;SDS011;10326;53.660;10.200;2023-04-24T00:28:21;4.68;;;4.22;;
20336;SDS011;10326;53.660;10.200;2023-04-24T00:30:48;4.30;;;4.00;;
20336;SDS011;10326;53.660;10.200;2023-04-24T00:33:15;4.43;;;4.13;;
20336;SDS011;10326;53.660;10.200;2023-04-24T00:35:42;4.80;;;4.40;;
20336;SDS011;10326;53.660;10.200;2023-04-24T00:38:11;4.63;;;4.28;;
20336;SDS011;10326;53.660;10.200;2023-04-24T00:40:38;4.50;;;4.20;;
20336;SDS011;10326;53.660;10.200;2023-04-24T00:43:05;4.97;;;4.57;;
20336;SDS011;10326;53.660;10.200;2023-04-24T00:45:32;4.75;;;4.45;;
20336;SDS011;10326;53.660;10.200;2023-04-24T00:47:59;4.93;;;4.53;;
20336;SDS011;10326;53.660;10.200;2023-04-24T00:50:27;4.50;;;4.10;;
20336;SDS011;10326;53.660;10.200;2023-04-24T00:52:55;4.63;;;4.22;;
20336;SDS011;10326;53.660;10.200;2023-04-24T00:55:23;5.22;;;4.82;;
20336;SDS011;10326;53.660;10.200;2023-04-24T00:57:52;5.00;;;4.60;;
20336;SDS011;10326;53.660;10.200;2023-04-24T01:00:19;5.18;;;4.78;;
20336;SDS011;10326;53.660;10.200;2023-04-24T01:02:47;5.22;;;4.78;;
20336;SDS011;10326;53.660;10.200;2023-04-24T01:05:16;5.30;;;4.80;;
20336;SDS011;10326;53.660;10.200;2023-04-24T01:07:45;5.00;;;4.50;;
20336;SDS011;10326;53.660;10.200;2023-04-24T01:10:14;5.30;;;4.90;;
20336;SDS011;10326;53.660;10.200;2023-04-24T01:12:45;5.03;;;4.63;;
20336;SDS011;10326;53.660;10.200;2023-04-24T01:15:12;5.22;;;4.82;;
20336;SDS011;10326;53.660;10.200;2023-04-24T01:17:41;5.43;;;4.95;;
20336;SDS011;10326;53.660;10.200;2023-04-24T01:20:08;5.18;;;4.78;;
20336;SDS011;10326;53.660;10.200;2023-04-24T01:22:38;4.97;;;4.57;;
20336;SDS011;10326;53.660;10.200;2023-04-24T01:25:06;5.35;;;4.85;;
20336;SDS011;10326;53.660;10.200;2023-04-24T01:27:33;4.85;;;4.45;;
20336;SDS011;10326;53.660;10.200;2023-04-24T01:30:00;5.15;;;4.75;;
20336;SDS011;10326;53.660;10.200;2023-04-24T01:32:29;5.22;;;4.82;;
20336;SDS011;10326;53.660;10.200;2023-04-24T01:34:56;4.78;;;4.47;;
20336;SDS011;10326;53.660;10.200;2023-04-24T01:37:23;4.20;;;3.90;;
20336;SDS011;10326;53.660;10.200;2023-04-24T01:39:55;4.18;;;3.80;;
20336;SDS011;10326;53.660;10.200;2023-04-24T01:42:24;4.35;;;4.00;;
20336;SDS011;10326;53.660;10.200;2023-04-24T01:44:52;3.97;;;3.67;;
20336;SDS011;10326;53.660;10.200;2023-04-24T01:47:19;6.30;;;4.28;;
20336;SDS011;10326;53.660;10.200;2023-04-24T01:49:47;3.90;;;3.60;;
20336;SDS011;10326;53.660;10.200;2023-04-24T01:52:15;4.22;;;3.92;;
20336;SDS011;10326;53.660;10.200;2023-04-24T01:54:42;4.18;;;3.80;;
20336;SDS011;10326;53.660;10.200;2023-04-24T01:57:11;4.18;;;3.78;;
20336;SDS011;10326;53.660;10.200;2023-04-24T01:59:38;4.00;;;3.70;;
20336;SDS011;10326;53.660;10.200;2023-04-24T02:02:05;4.13;;;3.83;;
20336;SDS011;10326;53.660;10.200;2023-04-24T02:04:32;3.67;;;3.30;;
20336;SDS011;10326;53.660;10.200;2023-04-24T02:06:59;3.42;;;3.22;;
20336;SDS011;10326;53.660;10.200;2023-04-24T02:09:26;3.42;;;3.13;;
20336;SDS011;10326;53.660;10.200;2023-04-24T02:11:53;3.65;;;3.28;;
20336;SDS011;10326;53.660;10.200;2023-04-24T02:14:24;3.83;;;3.40;;
20336;SDS011;10326;53.660;10.200;2023-04-24T02:16:51;2.80;;;2.60;;
20336;SDS011;10326;53.660;10.200;2023-04-24T02:19:19;3.03;;;2.83;;
20336;SDS011;10326;53.660;10.200;2023-04-24T02:21:46;3.35;;;3.15;;
20336;SDS011;10326;53.660;10.200;2023-04-24T02:24:13;3.35;;;3.05;;
20336;SDS011;10326;53.660;10.200;2023-04-24T02:26:40;3.20;;;3.00;;
20336;SDS011;10326;53.660;10.200;2023-04-24T02:29:07;3.08;;;2.60;;
20336;SDS011;10326;53.660;10.200;2023-04-24T02:31:36;3.08;;;2.83;;
20336;SDS011;10326;53.660;10.200;2023-04-24T02:34:03;3.20;;;3.00;;
20336;SDS011;10326;53.660;10.200;2023-04-24T02:36:30;2.78;;;2.58;;
20336;SDS011;10326;53.660;10.200;2023-04-24T02:38:57;2.92;;;2.72;;
20336;SDS011;10326;53.660;10.200;2023-04-24T02:41:25;2.85;;;2.65;;
20336;SDS011;10326;53.660;10.200;2023-04-24T02:43:56;3.17;;;2.90;;
20336;SDS011;10326;53.660;10.200;2023-04-24T02:46:23;3.45;;;3.25;;
20336;SDS011;10326;53.660;10.200;2023-04-24T02:48:51;2.90;;;2.70;;
20336;SDS011;10326;53.660;10.200;2023-04-24T02:51:18;3.22;;;3.03;;
20336;SDS011;10326;53.660;10.200;2023-04-24T02:53:45;2.90;;;2.70;;
20336;SDS011;10326;53.660;10.200;2023-04-24T02:56:12;3.22;;;3.03;;
20336;SDS011;10326;53.660;10.200;2023-04-24T02:58:39;2.80;;;2.60;;
20336;SDS011;10326;53.660;10.200;2023-04-24T03:01:07;2.83;;;2.63;;
20336;SDS011;10326;53.660;10.200;2023-04-24T03:03:35;2.60;;;2.40;;
20336;SDS011;10326;53.660;10.200;2023-04-24T03:06:05;3.40;;;2.70;;
20336;SDS011;10326;53.660;10.200;2023-04-24T03:08:33;2.80;;;2.60;;
20336;SDS011;10326;53.660;10.200;2023-04-24T03:11:00;2.78;;;2.58;;
20336;SDS011;10326;53.660;10.200;2023-04-24T03:13:27;2.70;;;2.50;;
20336;SDS011;10326;53.660;10.200;2023-04-24T03:15:54;2.80;;;2.58;;
20336;SDS011;10326;53.660;10.200;2023-04-24T03:18:21;2.50;;;2.30;;
20336;SDS011;10326;53.660;10.200;2023-04-24T03:20:50;2.55;;;2.35;;
20336;SDS011;10326;53.660;10.200;2023-04-24T03:23:18;2.53;;;2.33;;
20336;SDS011;10326;53.660;10.200;2023-04-24T03:25:45;2.10;;;2.00;;
20336;SDS011;10326;53.660;10.200;2023-04-24T03:28:14;2.42;;;2.22;;
20336;SDS011;10326;53.660;10.200;2023-04-24T03:30:44;2.15;;;1.95;;
20336;SDS011;10326;53.660;10.200;2023-04-24T03:33:12;2.10;;;2.00;;
20336;SDS011;10326;53.660;10.200;2023-04-24T03:35:48;2.45;;;2.00;;
20336;SDS011;10326;53.660;10.200;2023-04-24T03:38:16;1.95;;;1.85;;
20336;SDS011;10326;53.660;10.200;2023-04-24T03:40:44;2.00;;;1.88;;
20336;SDS011;10326;53.660;10.200;2023-04-24T03:43:31;1.75;;;1.65;;
20336;SDS011;10326;53.660;10.200;2023-04-24T03:46:00;2.75;;;1.83;;
20336;SDS011;10326;53.660;10.200;2023-04-24T03:48:30;1.73;;;1.63;;
20336;SDS011;10326;53.660;10.200;2023-04-24T03:50:58;2.65;;;1.85;;
20336;SDS011;10326;53.660;10.200;2023-04-24T03:53:25;2.13;;;1.73;;
20336;SDS011;10326;53.660;10.200;2023-04-24T03:55:54;1.80;;;1.70;;
20336;SDS011;10326;53.660;10.200;2023-04-24T03:58:22;1.85;;;1.40;;
20336;SDS011;10326;53.660;10.200;2023-04-24T04:00:50;1.85;;;1.52;;
20336;SDS011;10326;53.660;10.200;2023-04-24T04:03:36;1.55;;;1.38;;
20336;SDS011;10326;53.660;10.200;2023-04-24T04:06:04;1.50;;;1.40;;
20336;SDS011;10326;53.660;10.200;2023-04-24T04:08:31;1.60;;;1.50;;
20336;SDS011;10326;53.660;10.200;2023-04-24T04:11:00;1.40;;;1.30;;
20336;SDS011;10326;53.660;10.200;2023-04-24T04:13:27;1.73;;;1.63;;
20336;SDS011;10326;53.660;10.200;2023-04-24T04:15:55;1.60;;;1.50;;
20336;SDS011;10326;53.660;10.200;2023-04-24T04:18:22;1.75;;;1.60;;
20336;SDS011;10326;53.660;10.200;2023-04-24T04:20:49;1.30;;;1.20;;
20336;SDS011;10326;53.660;10.200;2023-04-24T04:23:17;1.65;;;1.55;;
20336;SDS011;10326;53.660;10.200;2023-04-24T04:25:54;1.40;;;1.30;;
20336;SDS011;10326;53.660;10.200;2023-04-24T04:28:27;1.50;;;1.40;;
20336;SDS011;10326;53.660;10.200;2023-04-24T04:30:55;2.00;;;1.52;;
20336;SDS011;10326;53.660;10.200;2023-04-24T04:33:23;1.70;;;1.60;;
20336;SDS011;10326;53.660;10.200;2023-04-24T04:35:51;1.55;;;1.45;;
20336;SDS011;10326;53.660;10.200;2023-04-24T04:38:19;1.85;;;1.75;;
20336;SDS011;10326;53.660;10.200;2023-04-24T04:41:00;1.83;;;1.48;;
20336;SDS011;10326;53.660;10.200;2023-04-24T04:43:31;1.70;;;1.30;;
20336;SDS011;10326;53.660;10.200;2023-04-24T04:45:59;1.85;;;1.35;;
20336;SDS011;10326;53.660;10.200;2023-04-24T04:48:51;1.50;;;1.40;;
20336;SDS011;10326;53.660;10.200;2023-04-24T04:51:18;1.23;;;1.13;;
20336;SDS011;10326;53.660;10.200;2023-04-24T04:53:45;1.50;;;1.40;;
20336;SDS011;10326;53.660;10.200;2023-04-24T04:56:12;1.60;;;1.50;;
20336;SDS011;10326;53.660;10.200;2023-04-24T04:58:43;1.90;;;1.20;;
20336;SDS011;10326;53.660;10.200;2023-04-24T05:01:13;1.27;;;1.10;;
20336;SDS011;10326;53.660;10.200;2023-04-24T05:03:44;1.00;;;1.00;;
20336;SDS011;10326;53.660;10.200;2023-04-24T05:06:13;1.83;;;1.35;;
20336;SDS011;10326;53.660;10.200;2023-04-24T05:08:42;1.38;;;1.27;;
20336;SDS011;10326;53.660;10.200;2023-04-24T05:11:17;1.88;;;1.10;;
20336;SDS011;10326;53.660;10.200;2023-04-24T05:13:47;1.50;;;1.40;;
20336;SDS011;10326;53.660;10.200;2023-04-24T05:16:18;1.42;;;1.33;;
20336;SDS011;10326;53.660;10.200;2023-04-24T05:18:46;1.50;;;1.40;;
20336;SDS011;10326;53.660;10.200;2023-04-24T05:21:17;1.70;;;1.60;;
20336;SDS011;10326;53.660;10.200;2023-04-24T05:23:48;1.55;;;1.38;;
20336;SDS011;10326;53.660;10.200;2023-04-24T05:26:23;1.60;;;1.50;;
20336;SDS011;10326;53.660;10.200;2023-04-24T05:28:51;1.35;;;1.25;;
20336;SDS011;10326;53.660;10.200;2023-04-24T05:31:18;1.20;;;1.10;;
20336;SDS011;10326;53.660;10.200;2023-04-24T05:33:46;1.35;;;1.25;;
20336;SDS011;10326;53.660;10.200;2023-04-24T05:36:13;1.35;;;1.17;;
20336;SDS011;10326;53.660;10.200;2023-04-24T05:38:40;1.35;;;1.25;;
20336;SDS011;10326;53.660;10.200;2023-04-24T05:41:07;1.00;;;1.00;;
20336;SDS011;10326;53.660;10.200;2023-04-24T05:43:35;1.05;;;0.98;;
20336;SDS011;10326;53.660;10.200;2023-04-24T05:46:03;0.90;;;0.90;;
20336;SDS011;10326;53.660;10.200;2023-04-24T05:48:31;1.45;;;1.20;;
20336;SDS011;10326;53.660;10.200;2023-04-24T05:51:00;1.17;;;1.15;;
20336;SDS011;10326;53.660;10.200;2023-04-24T05:53:27;1.30;;;1.20;;
20336;SDS011;10326;53.660;10.200;2023-04-24T05:55:55;1.00;;;1.00;;
20336;SDS011;10326;53.660;10.200;2023-04-24T05:58:22;1.27;;;1.00;;
20336;SDS011;10326;53.660;10.200;2023-04-24T06:00:49;1.33;;;1.27;;
20336;SDS011;10326;53.660;10.200;2023-04-24T06:03:18;1.13;;;1.10;;
20336;SDS011;10326;53.660;10.200;2023-04-24T06:05:47;1.20;;;1.10;;
20336;SDS011;10326;53.660;10.200;2023-04-24T06:08:16;2.08;;;1.45;;
20336;SDS011;10326;53.660;10.200;2023-04-24T06:10:45;1.48;;;1.38;;
20336;SDS011;10326;53.660;10.200;2023-04-24T06:13:12;1.23;;;1.13;;
20336;SDS011;10326;53.660;10.200;2023-04-24T06:15:47;1.40;;;1.30;;
20336;SDS011;10326;53.660;10.200;2023-04-24T06:18:26;1.40;;;1.30;;
20336;SDS011;10326;53.660;10.200;2023-04-24T06:20:53;1.50;;;1.40;;
20336;SDS011;10326;53.660;10.200;2023-04-24T06:23:20;1.70;;;1.60;;
20336;SDS011;10326;53.660;10.200;2023-04-24T06:25:47;1.50;;;1.40;;
20336;SDS011;10326;53.660;10.200;2023-04-24T06:28:15;2.13;;;1.50;;
20336;SDS011;10326;53.660;10.200;2023-04-24T06:30:42;1.67;;;1.58;;
20336;SDS011;10326;53.660;10.200;2023-04-24T06:33:10;1.60;;;1.20;;
20336;SDS011;10326;53.660;10.200;2023-04-24T06:35:39;1.77;;;1.67;;
20336;SDS011;10326;53.660;10.200;2023-04-24T06:38:06;1.40;;;1.30;;
20336;SDS011;10326;53.660;10.200;2023-04-24T06:40:32;1.60;;;1.50;;
20336;SDS011;10326;53.660;10.200;2023-04-24T06:42:59;1.58;;;1.30;;
20336;SDS011;10326;53.660;10.200;2023-04-24T06:45:28;1.90;;;1.38;;
20336;SDS011;10326;53.660;10.200;2023-04-24T06:47:55;2.40;;;1.35;;
20336;SDS011;10326;53.660;10.200;2023-04-24T06:50:24;1.50;;;1.40;;
20336;SDS011;10326;53.660;10.200;2023-04-24T06:52:52;1.65;;;1.35;;
20336;SDS011;10326;53.660;10.200;2023-04-24T06:55:19;1.48;;;1.30;;
20336;SDS011;10326;53.660;10.200;2023-04-24T06:57:46;1.63;;;1.52;;
20336;SDS011;10326;53.660;10.200;2023-04-24T07:00:14;2.85;;;1.45;;
20336;SDS011;10326;53.660;10.200;2023-04-24T07:02:41;1.40;;;1.30;;
20336;SDS011;10326;53.660;10.200;2023-04-24T07:05:08;1.55;;;1.38;;
20336;SDS011;10326;53.660;10.200;2023-04-24T07:07:35;2.45;;;1.42;;
20336;SDS011;10326;53.660;10.200;2023-04-24T07:10:07;1.50;;;1.40;;
20336;SDS011;10326;53.660;10.200;2023-04-24T07:12:35;2.05;;;1.88;;
20336;SDS011;10326;53.660;10.200;2023-04-24T07:15:03;1.70;;;1.60;;
20336;SDS011;10326;53.660;10.200;2023-04-24T07:17:31;1.52;;;1.42;;
20336;SDS011;10326;53.660;10.200;2023-04-24T07:19:58;2.00;;;1.80;;
20336;SDS011;10326;53.660;10.200;2023-04-24T07:22:25;2.00;;;1.88;;
20336;SDS011;10326;53.660;10.200;2023-04-24T07:24:52;1.55;;;1.45;;
20336;SDS011;10326;53.660;10.200;2023-04-24T07:27:20;1.80;;;1.70;;
20336;SDS011;10326;53.660;10.200;2023-04-24T07:29:47;1.98;;;1.88;;
20336;SDS011;10326;53.660;10.200;2023-04-24T07:32:15;3.60;;;2.00;;
20336;SDS011;10326;53.660;10.200;2023-04-24T07:34:42;2.08;;;1.88;;
20336;SDS011;10326;53.660;10.200;2023-04-24T07:37:09;1.95;;;1.85;;
20336;SDS011;10326;53.660;10.200;2023-04-24T07:39:36;2.92;;;1.88;;
20336;SDS011;10326;53.660;10.200;2023-04-24T07:42:03;1.77;;;1.65;;
20336;SDS011;10326;53.660;10.200;2023-04-24T07:44:31;2.20;;;2.10;;
20336;SDS011;10326;53.660;10.200;2023-04-24T07:46:58;1.92;;;1.83;;
20336;SDS011;10326;53.660;10.200;2023-04-24T07:49:25;2.00;;;1.90;;
20336;SDS011;10326;53.660;10.200;2023-04-24T07:51:52;2.20;;;2.00;;
20336;SDS011;10326;53.660;10.200;2023-04-24T07:54:20;2.35;;;2.17;;
20336;SDS011;10326;53.660;10.200;2023-04-24T07:56:47;2.20;;;2.00;;
20336;SDS011;10326;53.660;10.200;2023-04-24T07:59:14;2.30;;;2.10;;
20336;SDS011;10326;53.660;10.200;2023-04-24T08:01:42;2.40;;;2.20;;
20336;SDS011;10326;53.660;10.200;2023-04-24T08:04:09;2.42;;;2.05;;
20336;SDS011;10326;53.660;10.200;2023-04-24T08:06:36;2.60;;;2.40;;
20336;SDS011;10326;53.660;10.200;2023-04-24T08:09:03;2.80;;;2.50;;
20336;SDS011;10326;53.660;10.200;2023-04-24T08:11:30;2.58;;;2.38;;
20336;SDS011;10326;53.660;10.200;2023-04-24T08:13:57;2.45;;;2.35;;
20336;SDS011;10326;53.660;10.200;2023-04-24T08:16:24;2.42;;;2.30;;
20336;SDS011;10326;53.660;10.200;2023-04-24T08:18:53;2.88;;;2.67;;
20336;SDS011;10326;53.660;10.200;2023-04-24T08:21:20;3.05;;;2.85;;
20336;SDS011;10326;53.660;10.200;2023-04-24T08:23:47;3.28;;;3.08;;
20336;SDS011;10326;53.660;10.200;2023-04-24T08:26:14;2.90;;;2.70;;
20336;SDS011;10326;53.660;10.200;2023-04-24T08:28:41;3.20;;;3.00;;
20336;SDS011;10326;53.660;10.200;2023-04-24T08:31:09;3.00;;;2.80;;
20336;SDS011;10326;53.660;10.200;2023-04-24T08:33:36;2.92;;;2.72;;
20336;SDS011;10326;53.660;10.200;2023-04-24T08:36:05;3.25;;;3.05;;
20336;SDS011;10326;53.660;10.200;2023-04-24T08:38:32;3.20;;;3.00;;
20336;SDS011;10326;53.660;10.200;2023-04-24T08:41:00;3.10;;;2.90;;
20336;SDS011;10326;53.660;10.200;2023-04-24T08:43:27;3.25;;;2.95;;
20336;SDS011;10326;53.660;10.200;2023-04-24T08:45:55;3.60;;;3.30;;
20336;SDS011;10326;53.660;10.200;2023-04-24T08:48:22;4.00;;;3.60;;
20336;SDS011;10326;53.660;10.200;2023-04-24T08:50:50;4.03;;;3.67;;
20336;SDS011;10326;53.660;10.200;2023-04-24T08:53:18;4.22;;;3.13;;
20336;SDS011;10326;53.660;10.200;2023-04-24T08:55:46;3.95;;;3.65;;
20336;SDS011;10326;53.660;10.200;2023-04-24T08:58:15;2.90;;;2.70;;
20336;SDS011;10326;53.660;10.200;2023-04-24T09:00:43;3.72;;;3.42;;
20336;SDS011;10326;53.660;10.200;2023-04-24T09:03:13;3.40;;;3.20;;
20336;SDS011;10326;53.660;10.200;2023-04-24T09:05:41;3.80;;;3.50;;
20336;SDS011;10326;53.660;10.200;2023-04-24T09:08:11;4.10;;;3.80;;
20336;SDS011;10326;53.660;10.200;2023-04-24T09:10:41;4.43;;;4.05;;
20336;SDS011;10326;53.660;10.200;2023-04-24T09:13:08;4.05;;;3.75;;
20336;SDS011;10326;53.660;10.200;2023-04-24T09:15:36;4.28;;;3.88;;
20336;SDS011;10326;53.660;10.200;2023-04-24T09:18:06;3.92;;;3.63;;
20336;SDS011;10326;53.660;10.200;2023-04-24T09:20:33;4.15;;;3.85;;
20336;SDS011;10326;53.660;10.200;2023-04-24T09:23:01;3.90;;;3.60;;
20336;SDS011;10326;53.660;10.200;2023-04-24T09:25:30;4.03;;;3.75;;
20336;SDS011;10326;53.660;10.200;2023-04-24T09:28:01;4.63;;;4.32;;
20336;SDS011;10326;53.660;10.200;2023-04-24T09:30:30;5.32;;;4.35;;
20336;SDS011;10326;53.660;10.200;2023-04-24T09:33:10;3.75;;;3.45;;
20336;SDS011;10326;53.660;10.200;2023-04-24T09:35:40;4.38;;;4.07;;
20336;SDS011;10326;53.660;10.200;2023-04-24T09:38:09;4.47;;;4.07;;
20336;SDS011;10326;53.660;10.200;2023-04-24T09:40:36;3.72;;;3.45;;
20336;SDS011;10326;53.660;10.200;2023-04-24T09:43:04;3.72;;;3.42;;
20336;SDS011;10326;53.660;10.200;2023-04-24T09:45:38;3.50;;;3.30;;
20336;SDS011;10326;53.660;10.200;2023-04-24T09:48:05;3.63;;;3.40;;
20336;SDS011;10326;53.660;10.200;2023-04-24T09:50:36;3.35;;;3.15;;
20336;SDS011;10326;53.660;10.200;2023-04-24T09:53:03;4.10;;;3.70;;
20336;SDS011;10326;53.660;10.200;2023-04-24T09:55:33;3.95;;;3.70;;
20336;SDS011;10326;53.660;10.200;2023-04-24T09:58:07;4.40;;;4.03;;
20336;SDS011;10326;53.660;10.200;2023-04-24T10:00:35;4.28;;;3.88;;
20336;SDS011;10326;53.660;10.200;2023-04-24T10:03:03;4.22;;;3.92;;
20336;SDS011;10326;53.660;10.200;2023-04-24T10:05:32;3.88;;;3.50;;
20336;SDS011;10326;53.660;10.200;2023-04-24T10:08:00;4.05;;;3.75;;
20336;SDS011;10326;53.660;10.200;2023-04-24T10:10:29;4.95;;;4.55;;
20336;SDS011;10326;53.660;10.200;2023-04-24T10:12:57;4.50;;;4.10;;
20336;SDS011;10326;53.660;10.200;2023-04-24T10:15:27;5.20;;;4.70;;
20336;SDS011;10326;53.660;10.200;2023-04-24T10:17:54;5.45;;;4.95;;
20336;SDS011;10326;53.660;10.200;2023-04-24T10:20:25;9.82;;;4.70;;
20336;SDS011;10326;53.660;10.200;2023-04-24T10:22:54;4.63;;;4.32;;
20336;SDS011;10326;53.660;10.200;2023-04-24T10:25:23;4.75;;;4.35;;
20336;SDS011;10326;53.660;10.200;2023-04-24T10:27:53;4.93;;;4.50;;
20336;SDS011;10326;53.660;10.200;2023-04-24T10:30:22;4.80;;;4.45;;
20336;SDS011;10326;53.660;10.200;2023-04-24T10:32:51;5.05;;;4.65;;
20336;SDS011;10326;53.660;10.200;2023-04-24T10:35:18;5.55;;;5.05;;
20336;SDS011;10326;53.660;10.200;2023-04-24T10:37:48;5.10;;;4.70;;
20336;SDS011;10326;53.660;10.200;2023-04-24T10:40:17;5.35;;;4.90;;
20336;SDS011;10326;53.660;10.200;2023-04-24T10:42:51;5.20;;;4.72;;
20336;SDS011;10326;53.660;10.200;2023-04-24T10:45:19;6.25;;;5.75;;
20336;SDS011;10326;53.660;10.200;2023-04-24T10:47:52;6.53;;;6.03;;
20336;SDS011;10326;53.660;10.200;2023-04-24T10:50:25;6.38;;;5.78;;
20336;SDS011;10326;53.660;10.200;2023-04-24T10:52:55;6.40;;;5.80;;
20336;SDS011;10326;53.660;10.200;2023-04-24T10:55:39;6.15;;;5.65;;
20336;SDS011;10326;53.660;10.200;2023-04-24T10:58:08;6.40;;;5.57;;
20336;SDS011;10326;53.660;10.200;2023-04-24T11:00:37;6.05;;;5.63;;
20336;SDS011;10326;53.660;10.200;2023-04-24T11:03:06;7.78;;;6.53;;
20336;SDS011;10326;53.660;10.200;2023-04-24T11:05:50;6.93;;;6.38;;
20336;SDS011;10326;53.660;10.200;2023-04-24T11:08:24;7.60;;;6.90;;
20336;SDS011;10326;53.660;10.200;2023-04-24T11:11:00;7.75;;;7.03;;
20336;SDS011;10326;53.660;10.200;2023-04-24T11:14:01;8.40;;;7.57;;
20336;SDS011;10326;53.660;10.200;2023-04-24T11:16:33;8.05;;;7.35;;
20336;SDS011;10326;53.660;10.200;2023-04-24T11:19:18;8.18;;;7.40;;
20336;SDS011;10326;53.660;10.200;2023-04-24T11:21:54;8.00;;;7.28;;
20336;SDS011;10326;53.660;10.200;2023-04-24T11:24:25;9.25;;;7.78;;
20336;SDS011;10326;53.660;10.200;2023-04-24T11:26:56;8.52;;;7.72;;
20336;SDS011;10326;53.660;10.200;2023-04-24T11:29:43;8.38;;;7.57;;
20336;SDS011;10326;53.660;10.200;2023-04-24T11:32:19;9.05;;;8.20;;
20336;SDS011;10326;53.660;10.200;2023-04-24T11:34:53;9.02;;;8.13;;
20336;SDS011;10326;53.660;10.200;2023-04-24T11:37:22;8.70;;;7.82;;
20336;SDS011;10326;53.660;10.200;2023-04-24T11:39:51;9.07;;;8.18;;
20336;SDS011;10326;53.660;10.200;2023-04-24T11:42:19;8.23;;;7.15;;
20336;SDS011;10326;53.660;10.200;2023-04-24T11:44:47;7.47;;;6.78;;
20336;SDS011;10326;53.660;10.200;2023-04-24T11:47:15;8.07;;;7.38;;
20336;SDS011;10326;53.660;10.200;2023-04-24T11:49:42;7.90;;;7.30;;
20336;SDS011;10326;53.660;10.200;2023-04-24T11:52:11;8.07;;;7.28;;
20336;SDS011;10326;53.660;10.200;2023-04-24T11:54:46;8.20;;;7.40;;
20336;SDS011;10326;53.660;10.200;2023-04-24T11:57:14;7.60;;;6.90;;
20336;SDS011;10326;53.660;10.200;2023-04-24T11:59:42;7.32;;;6.72;;
20336;SDS011;10326;53.660;10.200;2023-04-24T12:02:08;7.72;;;7.03;;
20336;SDS011;10326;53.660;10.200;2023-04-24T12:04:46;7.13;;;6.45;;
20336;SDS011;10326;53.660;10.200;2023-04-24T12:07:14;7.25;;;6.65;;
20336;SDS011;10326;53.660;10.200;2023-04-24T12:09:42;7.35;;;6.75;;
20336;SDS011;10326;53.660;10.200;2023-04-24T12:12:11;7.43;;;6.80;;
20336;SDS011;10326;53.660;10.200;2023-04-24T12:14:49;8.27;;;7.57;;
20336;SDS011;10326;53.660;10.200;2023-04-24T12:17:23;6.80;;;6.20;;
20336;SDS011;10326;53.660;10.200;2023-04-24T12:19:51;6.63;;;6.03;;
20336;SDS011;10326;53.660;10.200;2023-04-24T12:22:20;5.93;;;5.43;;
20336;SDS011;10326;53.660;10.200;2023-04-24T12:24:59;6.00;;;5.50;;
20336;SDS011;10326;53.660;10.200;2023-04-24T12:27:29;5.57;;;5.18;;
20336;SDS011;10326;53.660;10.200;2023-04-24T12:29:58;6.07;;;5.57;;
20336;SDS011;10326;53.660;10.200;2023-04-24T12:32:27;5.35;;;4.95;;
20336;SDS011;10326;53.660;10.200;2023-04-24T12:34:55;5.97;;;5.47;;
20336;SDS011;10326;53.660;10.200;2023-04-24T12:37:24;5.30;;;4.80;;
20336;SDS011;10326;53.660;10.200;2023-04-24T12:39:59;5.35;;;4.88;;
20336;SDS011;10326;53.660;10.200;2023-04-24T12:42:28;5.90;;;4.63;;
20336;SDS011;10326;53.660;10.200;2023-04-24T12:44:56;4.75;;;4.35;;
20336;SDS011;10326;53.660;10.200;2023-04-24T12:47:25;5.00;;;4.57;;
20336;SDS011;10326;53.660;10.200;2023-04-24T12:49:53;4.55;;;4.13;;
20336;SDS011;10326;53.660;10.200;2023-04-24T12:52:21;5.00;;;4.60;;
20336;SDS011;10326;53.660;10.200;2023-04-24T12:54:50;5.57;;;5.07;;
20336;SDS011;10326;53.660;10.200;2023-04-24T12:57:19;6.15;;;4.97;;
20336;SDS011;10326;53.660;10.200;2023-04-24T12:59:46;5.13;;;4.72;;
20336;SDS011;10326;53.660;10.200;2023-04-24T13:02:13;5.45;;;4.97;;
20336;SDS011;10326;53.660;10.200;2023-04-24T13:04:43;5.35;;;4.93;;
20336;SDS011;10326;53.660;10.200;2023-04-24T13:07:11;5.47;;;5.07;;
20336;SDS011;10326;53.660;10.200;2023-04-24T13:09:39;5.40;;;4.93;;
20336;SDS011;10326;53.660;10.200;2023-04-24T13:12:08;5.50;;;5.10;;
20336;SDS011;10326;53.660;10.200;2023-04-24T13:14:35;5.55;;;5.05;;
20336;SDS011;10326;53.660;10.200;2023-04-24T13:17:03;5.95;;;5.43;;
20336;SDS011;10326;53.660;10.200;2023-04-24T13:19:35;5.05;;;4.65;;
20336;SDS011;10326;53.660;10.200;2023-04-24T13:22:03;4.05;;;3.65;;
20336;SDS011;10326;53.660;10.200;2023-04-24T13:24:30;4.32;;;3.97;;
20336;SDS011;10326;53.660;10.200;2023-04-24T13:26:57;4.25;;;3.95;;
20336;SDS011;10326;53.660;10.200;2023-04-24T13:29:27;4.60;;;4.18;;
20336;SDS011;10326;53.660;10.200;2023-04-24T13:31:54;4.68;;;4.32;;
20336;SDS011;10326;53.660;10.200;2023-04-24T13:34:21;4.43;;;4.03;;
20336;SDS011;10326;53.660;10.200;2023-04-24T13:36:49;4.30;;;4.00;;
20336;SDS011;10326;53.660;10.200;2023-04-24T13:39:16;4.40;;;4.10;;
20336;SDS011;10326;53.660;10.200;2023-04-24T13:41:43;4.85;;;4.55;;
20336;SDS011;10326;53.660;10.200;2023-04-24T13:44:12;5.45;;;5.05;;
20336;SDS011;10326;53.660;10.200;2023-04-24T13:46:41;5.60;;;5.10;;
20336;SDS011;10326;53.660;10.200;2023-04-24T13:49:10;4.75;;;4.40;;
20336;SDS011;10326;53.660;10.200;2023-04-24T13:51:37;4.68;;;4.38;;
20336;SDS011;10326;53.660;10.200;2023-04-24T13:54:05;4.88;;;4.47;;
20336;SDS011;10326;53.660;10.200;2023-04-24T13:56:32;4.80;;;4.40;;
20336;SDS011;10326;53.660;10.200;2023-04-24T13:58:59;4.90;;;4.50;;
20336;SDS011;10326;53.660;10.200;2023-04-24T14:01:27;4.72;;;4.32;;
20336;SDS011;10326;53.660;10.200;2023-04-24T14:03:55;4.47;;;4.18;;
20336;SDS011;10326;53.660;10.200;2023-04-24T14:06:22;4.28;;;3.97;;
20336;SDS011;10326;53.660;10.200;2023-04-24T14:08:49;4.60;;;4.20;;
20336;SDS011;10326;53.660;10.200;2023-04-24T14:11:17;4.57;;;4.25;;
20336;SDS011;10326;53.660;10.200;2023-04-24T14:13:44;4.43;;;4.13;;
20336;SDS011;10326;53.660;10.200;2023-04-24T14:16:12;4.75;;;4.45;;
20336;SDS011;10326;53.660;10.200;2023-04-24T14:18:39;4.20;;;3.90;;
20336;SDS011;10326;53.660;10.200;2023-04-24T14:21:07;4.50;;;4.20;;
20336;SDS011;10326;53.660;10.200;2023-04-24T14:23:35;4.68;;;4.38;;
20336;SDS011;10326;53.660;10.200;2023-04-24T14:26:02;4.45;;;4.15;;
20336;SDS011;10326;53.660;10.200;2023-04-24T14:28:29;4.72;;;4.32;;
20336;SDS011;10326;53.660;10.200;2023-04-24T14:30:56;4.50;;;4.20;;
20336;SDS011;10326;53.660;10.200;2023-04-24T14:33:22;4.78;;;4.38;;
20336;SDS011;10326;53.660;10.200;2023-04-24T14:35:49;4.60;;;4.30;;
20336;SDS011;10326;53.660;10.200;2023-04-24T14:38:18;4.57;;;4.28;;
20336;SDS011;10326;53.660;10.200;2023-04-24T14:40:45;4.50;;;4.20;;
20336;SDS011;10326;53.660;10.200;2023-04-24T14:43:11;4.68;;;4.38;;